Time;durP1;ratioP1;P1;durP2;ratioP2;P2;SDS_P1;SDS_P2;PMS_P1;PMS_P2;Temp;Humidity;BMP_temperature;BMP_pressure;BME280_temperature;BME280_humidity;BME280_pressure;Samples;Min_cycle;Max_cycle;Signal;HPM_P1;HPM_P2
2021/11/27 00:00:34;;;;;;;;;;;4.80;99.90;;;;;;8425183;28;19920;-71
2021/11/27 00:04:36;;;;;;;;;;;4.70;99.90;;;;;;8422473;28;19963;-71
2021/11/27 00:08:38;;;;;;;;;;;4.70;99.90;;;;;;8425082;28;20015;-72
2021/11/27 00:12:40;;;;;;;;;;;4.60;99.90;;;;;;8428595;28;20428;-71
2021/11/27 00:16:42;;;;;;;;;;;4.60;99.90;;;;;;8419173;28;20275;-71
2021/11/27 00:20:45;;;;;;;;;;;4.50;99.90;;;;;;8419245;28;19962;-72
2021/11/27 00:24:47;;;;;;;;;;;4.40;99.90;;;;;;8421465;28;19920;-72
2021/11/27 00:28:49;;;;;;;;;;;4.40;99.90;;;;;;8415980;28;19920;-72
2021/11/27 00:32:51;;;;;;;;;;;4.40;99.90;;;;;;8431848;28;19924;-72
2021/11/27 00:36:53;;;;;;;;;;;4.30;99.90;;;;;;8425802;28;19985;-72
2021/11/27 00:40:55;;;;;;;;;;;4.20;99.90;;;;;;8420320;28;19920;-71
2021/11/27 00:44:57;;;;;;;;;;;4.20;99.90;;;;;;8439446;28;19919;-72
2021/11/27 00:48:58;;;;;;;;;;;4.20;99.90;;;;;;8431532;28;19920;-72
2021/11/27 00:53:01;;;;;;;;;;;4.20;99.90;;;;;;8434330;28;19959;-71
2021/11/27 00:57:03;;;;;;;;;;;4.30;99.90;;;;;;8423152;28;20287;-72
2021/11/27 01:01:14;;;;;;;;;;;4.20;99.90;;;;;;8428967;28;19920;-72
2021/11/27 01:05:16;;;;;;;;;;;4.20;99.90;;;;;;8432384;28;19934;-71
2021/11/27 01:09:18;;;;;;;;;;;4.20;99.90;;;;;;8438791;28;19967;-71
2021/11/27 01:13:19;;;;;;;;;;;4.20;99.90;;;;;;8433276;28;19938;-71
2021/11/27 01:17:21;;;;;;;;;;;4.20;99.90;;;;;;8434983;28;19919;-71
2021/11/27 01:21:24;;;;;;;;;;;4.20;99.90;;;;;;8420425;28;20317;-72
2021/11/27 01:25:27;;;;;;;;;;;4.20;99.90;;;;;;8423761;28;19920;-72
2021/11/27 01:29:28;;;;;;;;;;;4.20;99.90;;;;;;8429962;28;19923;-72
2021/11/27 01:33:30;;;;;;;;;;;4.20;99.90;;;;;;8435599;28;19924;-71
2021/11/27 01:37:33;;;;;;;;;;;4.20;99.90;;;;;;8431058;28;19959;-72
2021/11/27 01:41:36;;;;;;;;;;;4.10;99.90;;;;;;8439365;28;20276;-71
2021/11/27 01:45:38;;;;;;;;;;;4.10;99.90;;;;;;8429953;28;19920;-71
2021/11/27 01:49:40;;;;;;;;;;;4.10;99.90;;;;;;8431341;28;20327;-72
2021/11/27 01:53:44;;;;;;;;;;;4.10;99.90;;;;;;8425915;28;19966;-72
2021/11/27 01:57:46;;;;;;;;;;;4.10;99.90;;;;;;8423694;28;19923;-72
2021/11/27 02:01:48;;;;;;;;;;;4.10;99.90;;;;;;8428559;28;19924;-71
2021/11/27 02:05:50;;;;;;;;;;;4.10;99.90;;;;;;8421922;28;19923;-72
2021/11/27 02:09:51;;;;;;;;;;;4.10;99.90;;;;;;8427564;28;19920;-72
2021/11/27 02:13:54;;;;;;;;;;;4.10;99.90;;;;;;8424535;28;19920;-72
2021/11/27 02:17:55;;;;;;;;;;;4.00;99.90;;;;;;8438763;28;19926;-72
2021/11/27 02:21:57;;;;;;;;;;;4.00;99.90;;;;;;8434887;28;19928;-72
2021/11/27 02:25:59;;;;;;;;;;;4.00;99.90;;;;;;8456465;27;19982;-72
2021/11/27 02:30:01;;;;;;;;;;;4.00;99.90;;;;;;8430204;28;19920;-72
2021/11/27 02:34:04;;;;;;;;;;;4.00;99.90;;;;;;8432821;28;19927;-71
2021/11/27 02:38:06;;;;;;;;;;;3.90;99.90;;;;;;8430839;28;19920;-71
2021/11/27 02:42:08;;;;;;;;;;;3.90;99.90;;;;;;8453638;27;19924;-72
2021/11/27 02:46:10;;;;;;;;;;;3.90;99.90;;;;;;8432484;28;19928;-72
2021/11/27 02:50:13;;;;;;;;;;;3.90;99.90;;;;;;8421335;28;20248;-72
2021/11/27 02:54:15;;;;;;;;;;;3.90;99.90;;;;;;8418232;28;20425;-72
2021/11/27 02:58:16;;;;;;;;;;;3.90;99.90;;;;;;8420959;28;19927;-72
2021/11/27 03:02:18;;;;;;;;;;;3.90;99.90;;;;;;8423903;28;19928;-72
2021/11/27 03:06:20;;;;;;;;;;;3.90;99.90;;;;;;8433421;28;20383;-72
2021/11/27 03:10:22;;;;;;;;;;;3.90;99.90;;;;;;8454159;27;19920;-71
2021/11/27 03:14:24;;;;;;;;;;;3.90;99.90;;;;;;8427307;28;19988;-72
2021/11/27 03:18:26;;;;;;;;;;;3.90;99.90;;;;;;8425855;28;20382;-71
2021/11/27 03:22:27;;;;;;;;;;;3.90;99.90;;;;;;8424010;28;20272;-72
2021/11/27 03:26:29;;;;;;;;;;;4.00;99.90;;;;;;8424514;28;19919;-72
2021/11/27 03:30:31;;;;;;;;;;;4.00;99.90;;;;;;8448666;27;19924;-72
2021/11/27 03:34:33;;;;;;;;;;;4.00;99.90;;;;;;8431860;28;19920;-71
2021/11/27 03:38:35;;;;;;;;;;;4.00;99.90;;;;;;8442628;28;19920;-72
2021/11/27 03:42:37;;;;;;;;;;;4.00;99.90;;;;;;8428404;28;20279;-72
2021/11/27 03:46:38;;;;;;;;;;;4.00;99.90;;;;;;8425553;28;19924;-71
2021/11/27 03:50:45;;;;;;;;;;;3.90;99.90;;;;;;8424336;28;19944;-71
2021/11/27 03:54:47;;;;;;;;;;;3.90;99.90;;;;;;8442451;27;20260;-72
2021/11/27 03:58:49;;;;;;;;;;;3.80;99.90;;;;;;8422445;28;20258;-71
2021/11/27 04:02:51;;;;;;;;;;;3.80;99.90;;;;;;8427362;28;19941;-72
2021/11/27 04:06:53;;;;;;;;;;;3.80;99.90;;;;;;8420082;28;19920;-72
2021/11/27 04:10:54;;;;;;;;;;;3.80;99.90;;;;;;8425226;28;19926;-72
2021/11/27 04:14:56;;;;;;;;;;;3.70;99.90;;;;;;8433233;28;19920;-72
2021/11/27 04:18:58;;;;;;;;;;;3.70;99.90;;;;;;8442185;28;19998;-72
2021/11/27 04:22:59;;;;;;;;;;;3.80;99.90;;;;;;8434038;28;20387;-72
2021/11/27 04:27:01;;;;;;;;;;;3.80;99.90;;;;;;8422497;28;19931;-72
2021/11/27 04:31:03;;;;;;;;;;;3.70;99.90;;;;;;8433044;28;20253;-72
2021/11/27 04:35:05;;;;;;;;;;;3.70;99.90;;;;;;8430222;28;20279;-72
2021/11/27 04:39:07;;;;;;;;;;;3.70;99.90;;;;;;8435302;28;20283;-72
2021/11/27 04:43:08;;;;;;;;;;;3.70;99.90;;;;;;8437954;28;19966;-72
2021/11/27 04:47:10;;;;;;;;;;;3.70;99.90;;;;;;8435878;28;20299;-72
2021/11/27 04:51:11;;;;;;;;;;;3.70;99.90;;;;;;8434776;28;20299;-72
2021/11/27 04:55:14;;;;;;;;;;;3.70;99.90;;;;;;8467520;27;19955;-72
2021/11/27 04:59:15;;;;;;;;;;;3.70;99.90;;;;;;8432548;28;19927;-72
2021/11/27 05:03:17;;;;;;;;;;;3.60;99.90;;;;;;8436784;28;19920;-72
2021/11/27 05:07:19;;;;;;;;;;;3.60;99.90;;;;;;8432601;28;19931;-72
2021/11/27 05:11:20;;;;;;;;;;;3.60;99.90;;;;;;8436457;28;19924;-72
2021/11/27 05:15:22;;;;;;;;;;;3.60;99.90;;;;;;8429951;28;19924;-72
2021/11/27 05:19:24;;;;;;;;;;;3.60;99.90;;;;;;8435142;28;19931;-72
2021/11/27 05:23:26;;;;;;;;;;;3.60;99.90;;;;;;8432600;28;19927;-71
2021/11/27 05:27:28;;;;;;;;;;;3.60;99.90;;;;;;8433852;28;19959;-71
2021/11/27 05:31:30;;;;;;;;;;;3.60;99.90;;;;;;8430479;28;19920;-72
2021/11/27 05:35:31;;;;;;;;;;;3.60;99.90;;;;;;8432269;28;19924;-71
2021/11/27 05:39:33;;;;;;;;;;;3.60;99.90;;;;;;8438377;28;19973;-71
2021/11/27 05:43:35;;;;;;;;;;;3.60;99.90;;;;;;8428142;28;19923;-72
2021/11/27 05:47:38;;;;;;;;;;;3.60;99.90;;;;;;8418641;28;19951;-72
2021/11/27 05:51:40;;;;;;;;;;;3.60;99.90;;;;;;8438975;27;19927;-72
2021/11/27 05:55:44;;;;;;;;;;;3.60;99.90;;;;;;8427863;28;19955;-74
2021/11/27 05:59:46;;;;;;;;;;;3.50;99.90;;;;;;8418429;28;19998;-74
2021/11/27 06:03:48;;;;;;;;;;;3.50;99.90;;;;;;8428825;28;19920;-72
2021/11/27 06:07:50;;;;;;;;;;;3.40;99.90;;;;;;8436364;28;19931;-71
2021/11/27 06:11:51;;;;;;;;;;;3.40;99.90;;;;;;8427101;28;19950;-71
2021/11/27 06:15:53;;;;;;;;;;;3.30;99.90;;;;;;8423439;28;19927;-71
2021/11/27 06:19:55;;;;;;;;;;;3.20;99.90;;;;;;8428670;28;19926;-71
2021/11/27 06:23:56;;;;;;;;;;;3.20;99.90;;;;;;8425472;28;19920;-72
2021/11/27 06:27:58;;;;;;;;;;;3.10;99.90;;;;;;8426490;28;19958;-71
2021/11/27 06:32:01;;;;;;;;;;;3.00;99.90;;;;;;8419915;28;19924;-72
2021/11/27 06:36:03;;;;;;;;;;;3.00;99.90;;;;;;8427081;28;19926;-71
2021/11/27 06:40:05;;;;;;;;;;;2.90;99.90;;;;;;8432975;28;19928;-72
2021/11/27 06:44:07;;;;;;;;;;;3.00;99.90;;;;;;8428224;28;20005;-71
2021/11/27 06:48:08;;;;;;;;;;;3.00;99.90;;;;;;8426392;28;19924;-71
2021/11/27 06:52:11;;;;;;;;;;;3.00;99.90;;;;;;8430184;28;20366;-72
2021/11/27 06:56:12;;;;;;;;;;;3.00;99.90;;;;;;8421100;28;20402;-72
2021/11/27 07:00:14;;;;;;;;;;;3.10;99.90;;;;;;8429797;28;19958;-72
2021/11/27 07:04:17;;;;;;;;;;;3.00;99.90;;;;;;8430236;28;19967;-72
2021/11/27 07:08:19;;;;;;;;;;;3.00;99.90;;;;;;8424461;28;19920;-72
2021/11/27 07:12:21;;;;;;;;;;;3.00;99.90;;;;;;8434060;28;19970;-71
2021/11/27 07:16:22;;;;;;;;;;;3.00;99.90;;;;;;8435418;28;20389;-71
2021/11/27 07:20:24;;;;;;;;;;;3.00;99.90;;;;;;8419631;28;19927;-71
2021/11/27 07:24:26;;;;;;;;;;;3.00;99.90;;;;;;8417592;28;20339;-72
2021/11/27 07:28:27;;;;;;;;;;;3.00;99.90;;;;;;8421921;28;19927;-72
2021/11/27 07:32:29;;;;;;;;;;;3.00;99.90;;;;;;8432530;28;19920;-72
2021/11/27 07:36:30;;;;;;;;;;;3.10;99.90;;;;;;8426167;28;19927;-71
2021/11/27 07:40:36;;;;;;;;;;;3.10;99.90;;;;;;8432003;28;20351;-72
2021/11/27 07:44:38;;;;;;;;;;;3.10;99.90;;;;;;8435560;28;20288;-71
2021/11/27 07:48:40;;;;;;;;;;;3.10;99.90;;;;;;8418502;28;19920;-71
2021/11/27 07:52:42;;;;;;;;;;;3.10;99.90;;;;;;8420772;28;19955;-71
2021/11/27 07:56:45;;;;;;;;;;;3.10;99.90;;;;;;8452149;27;19919;-71
2021/11/27 08:00:47;;;;;;;;;;;3.10;99.90;;;;;;8451477;27;20336;-72
2021/11/27 08:04:49;;;;;;;;;;;3.10;99.90;;;;;;8424262;28;19927;-72
2021/11/27 08:08:50;;;;;;;;;;;3.20;99.90;;;;;;8418462;28;19947;-71
2021/11/27 08:12:52;;;;;;;;;;;3.20;99.90;;;;;;8419557;28;20097;-72
2021/11/27 08:16:53;;;;;;;;;;;3.20;99.90;;;;;;8418677;28;19994;-72
2021/11/27 08:20:55;;;;;;;;;;;3.20;99.90;;;;;;8412235;28;19978;-72
2021/11/27 08:25:17;;;;;;;;;;;3.20;99.90;;;;;;8421936;28;19928;-72
2021/11/27 08:29:18;;;;;;;;;;;3.20;99.90;;;;;;8413452;28;19931;-72
2021/11/27 08:33:20;;;;;;;;;;;3.20;99.90;;;;;;8421455;28;19920;-72
2021/11/27 08:37:22;;;;;;;;;;;3.20;99.90;;;;;;8421303;28;20266;-72
2021/11/27 08:41:24;;;;;;;;;;;3.20;99.90;;;;;;8423939;28;19928;-73
2021/11/27 08:45:26;;;;;;;;;;;3.20;99.90;;;;;;8418832;28;19947;-72
2021/11/27 08:49:28;;;;;;;;;;;3.20;99.90;;;;;;8422990;28;20414;-72
2021/11/27 08:53:29;;;;;;;;;;;3.20;99.90;;;;;;8425018;28;20363;-72
2021/11/27 08:57:31;;;;;;;;;;;3.20;99.90;;;;;;8422319;28;19927;-72
2021/11/27 09:01:33;;;;;;;;;;;3.20;99.90;;;;;;8416723;28;19920;-72
2021/11/27 09:05:35;;;;;;;;;;;3.20;99.90;;;;;;8427183;28;19928;-72
2021/11/27 09:09:37;;;;;;;;;;;3.20;99.90;;;;;;8421325;28;19920;-72
2021/11/27 09:13:40;;;;;;;;;;;3.20;99.90;;;;;;8424299;28;19927;-72
2021/11/27 09:17:41;;;;;;;;;;;3.10;99.90;;;;;;8421422;28;19919;-72
2021/11/27 09:21:45;;;;;;;;;;;3.10;99.90;;;;;;8420017;28;20318;-72
2021/11/27 09:25:47;;;;;;;;;;;3.10;99.90;;;;;;8420354;28;19956;-72
2021/11/27 09:29:49;;;;;;;;;;;3.10;99.90;;;;;;8419241;28;19927;-72
2021/11/27 09:33:50;;;;;;;;;;;3.20;99.90;;;;;;8425151;28;19971;-72
2021/11/27 09:37:52;;;;;;;;;;;3.20;99.90;;;;;;8416620;28;20007;-72
2021/11/27 09:41:54;;;;;;;;;;;3.20;99.90;;;;;;8420046;28;20054;-72
2021/11/27 09:45:56;;;;;;;;;;;3.20;99.90;;;;;;8424148;28;19927;-72
2021/11/27 09:49:58;;;;;;;;;;;3.20;99.90;;;;;;8426311;28;19920;-72
2021/11/27 09:54:01;;;;;;;;;;;3.20;99.90;;;;;;8424966;28;20478;-72
2021/11/27 09:58:03;;;;;;;;;;;3.20;99.90;;;;;;8419541;28;20257;-72
2021/11/27 10:02:06;;;;;;;;;;;3.10;99.90;;;;;;8423344;28;19920;-72
2021/11/27 10:06:07;;;;;;;;;;;3.10;99.90;;;;;;8422614;28;19963;-72
2021/11/27 10:10:10;;;;;;;;;;;3.10;99.90;;;;;;8413014;28;19997;-72
2021/11/27 10:14:13;;;;;;;;;;;3.10;99.90;;;;;;8452848;27;19920;-72
2021/11/27 10:18:22;;;;;;;;;;;3.20;99.90;;;;;;8410711;28;19928;-72
2021/11/27 10:22:40;;;;;;;;;;;3.20;99.90;;;;;;8423133;28;19920;-72
2021/11/27 10:26:41;;;;;;;;;;;3.20;99.90;;;;;;8448023;27;20335;-72
2021/11/27 10:30:46;;;;;;;;;;;3.30;99.90;;;;;;8424026;28;19924;-72
2021/11/27 10:34:54;;;;;;;;;;;3.30;99.90;;;;;;8428785;28;19920;-71
2021/11/27 10:39:02;;;;;;;;;;;3.30;99.90;;;;;;8425883;28;19963;-72
2021/11/27 10:43:05;;;;;;;;;;;3.30;99.90;;;;;;8425036;28;19925;-72
2021/11/27 10:47:11;;;;;;;;;;;3.40;99.90;;;;;;8423433;28;19963;-71
2021/11/27 10:51:18;;;;;;;;;;;3.50;99.90;;;;;;8421313;28;19963;-72
2021/11/27 10:55:20;;;;;;;;;;;3.50;99.90;;;;;;8423136;28;19931;-72
2021/11/27 10:59:21;;;;;;;;;;;3.50;99.90;;;;;;8419267;28;20228;-72
2021/11/27 11:03:34;;;;;;;;;;;3.50;99.90;;;;;;8425614;28;20327;-71
2021/11/27 11:07:36;;;;;;;;;;;3.50;99.90;;;;;;8426772;28;19920;-75
2021/11/27 11:11:37;;;;;;;;;;;3.40;99.90;;;;;;8424867;28;19924;-74
2021/11/27 11:15:41;;;;;;;;;;;3.40;99.90;;;;;;8420776;28;19974;-74
2021/11/27 11:19:42;;;;;;;;;;;3.40;99.90;;;;;;8417301;28;19920;-72
2021/11/27 11:23:46;;;;;;;;;;;3.50;99.90;;;;;;8418272;28;19920;-72
2021/11/27 11:28:09;;;;;;;;;;;3.50;99.90;;;;;;8406662;28;20072;-74
2021/11/27 11:32:15;;;;;;;;;;;3.60;99.90;;;;;;8406969;28;19964;-74
2021/11/27 11:36:18;;;;;;;;;;;3.60;99.90;;;;;;8411032;28;19959;-74
2021/11/27 11:40:20;;;;;;;;;;;3.70;99.90;;;;;;8411207;28;19920;-74
2021/11/27 11:44:21;;;;;;;;;;;3.70;99.90;;;;;;8414854;28;19966;-74
2021/11/27 11:48:25;;;;;;;;;;;3.70;99.90;;;;;;8410320;28;19920;-74
2021/11/27 11:52:34;;;;;;;;;;;3.80;99.90;;;;;;8432811;27;19963;-74
2021/11/27 11:56:38;;;;;;;;;;;3.80;99.90;;;;;;8408153;28;20225;-74
2021/11/27 12:00:43;;;;;;;;;;;3.90;99.90;;;;;;8413667;28;19957;-74
2021/11/27 12:05:03;;;;;;;;;;;4.00;99.90;;;;;;8407364;28;19985;-74
2021/11/27 12:09:05;;;;;;;;;;;4.10;99.90;;;;;;8417633;28;20404;-74
2021/11/27 12:13:07;;;;;;;;;;;4.10;99.90;;;;;;8426510;28;19928;-74
2021/11/27 12:17:17;;;;;;;;;;;4.20;99.90;;;;;;8421176;28;19920;-74
2021/11/27 12:21:19;;;;;;;;;;;4.30;99.90;;;;;;8416424;28;20847;-74
2021/11/27 12:25:28;;;;;;;;;;;4.30;99.90;;;;;;8414146;28;19963;-72
2021/11/27 12:29:30;;;;;;;;;;;4.40;99.90;;;;;;8419201;28;20431;-71
2021/11/27 12:33:41;;;;;;;;;;;4.40;99.90;;;;;;8417979;28;19970;-71
2021/11/27 12:37:42;;;;;;;;;;;4.30;99.90;;;;;;8420747;28;19974;-72
2021/11/27 12:42:12;;;;;;;;;;;4.30;99.90;;;;;;8425170;28;20371;-72
2021/11/27 12:46:29;;;;;;;;;;;4.10;99.90;;;;;;8449700;27;20699;-71
2021/11/27 12:50:30;;;;;;;;;;;4.00;99.90;;;;;;8426393;28;19971;-71
2021/11/27 12:54:32;;;;;;;;;;;4.00;99.90;;;;;;8407578;28;19934;-71
2021/11/27 12:58:39;;;;;;;;;;;4.00;99.90;;;;;;8406715;28;19970;-71
2021/11/27 13:02:50;;;;;;;;;;;4.00;99.90;;;;;;8407153;28;19920;-71
2021/11/27 13:06:52;;;;;;;;;;;4.00;99.90;;;;;;8411336;28;24711;-71
2021/11/27 13:10:54;;;;;;;;;;;4.10;99.90;;;;;;8407845;28;19924;-72
2021/11/27 13:15:15;;;;;;;;;;;4.00;99.90;;;;;;8410601;28;19939;-72
2021/11/27 13:19:30;;;;;;;;;;;3.90;99.90;;;;;;8410991;28;19959;-72
2021/11/27 13:23:35;;;;;;;;;;;3.80;99.90;;;;;;8423774;28;19938;-72
2021/11/27 13:27:40;;;;;;;;;;;3.70;99.90;;;;;;8405117;28;20318;-71
2021/11/27 13:31:42;;;;;;;;;;;3.70;99.90;;;;;;8408078;28;20550;-71
2021/11/27 13:35:44;;;;;;;;;;;3.70;99.90;;;;;;8411093;28;19928;-71
2021/11/27 13:39:46;;;;;;;;;;;3.70;99.90;;;;;;8404569;28;19920;-71
2021/11/27 13:43:48;;;;;;;;;;;3.70;99.90;;;;;;8402671;28;19990;-72
2021/11/27 13:47:56;;;;;;;;;;;3.80;99.90;;;;;;8408826;28;19931;-71
2021/11/27 13:51:58;;;;;;;;;;;3.90;99.90;;;;;;8407645;28;20015;-71
2021/11/27 13:56:03;;;;;;;;;;;3.90;99.90;;;;;;8413088;28;19967;-72
2021/11/27 14:00:12;;;;;;;;;;;3.90;99.90;;;;;;8412856;28;19924;-72
2021/11/27 14:04:14;;;;;;;;;;;3.90;99.90;;;;;;8407719;28;19935;-72
2021/11/27 14:08:18;;;;;;;;;;;3.90;99.90;;;;;;8407487;28;19924;-72
2021/11/27 14:12:36;;;;;;;;;;;3.80;99.90;;;;;;8408940;28;19927;-72
2021/11/27 14:16:40;;;;;;;;;;;3.80;99.90;;;;;;8411502;28;20119;-72
2021/11/27 14:20:43;;;;;;;;;;;3.80;99.90;;;;;;8397866;28;20360;-72
2021/11/27 14:24:44;;;;;;;;;;;3.70;99.90;;;;;;8400980;28;19966;-72
2021/11/27 14:28:47;;;;;;;;;;;3.70;99.90;;;;;;8404974;28;19946;-72
2021/11/27 14:32:49;;;;;;;;;;;3.60;99.90;;;;;;8401848;28;20014;-72
2021/11/27 14:37:00;;;;;;;;;;;3.50;99.90;;;;;;8402961;27;19966;-72
2021/11/27 14:41:04;;;;;;;;;;;3.40;99.90;;;;;;8397247;28;19924;-74
2021/11/27 14:45:07;;;;;;;;;;;3.40;99.90;;;;;;8397583;28;19930;-74
2021/11/27 14:49:24;;;;;;;;;;;3.30;99.90;;;;;;8397649;28;19920;-74
2021/11/27 14:53:32;;;;;;;;;;;3.30;99.90;;;;;;8396066;28;20350;-74
2021/11/27 14:57:36;;;;;;;;;;;3.20;99.90;;;;;;8398834;28;19935;-74
2021/11/27 15:01:38;;;;;;;;;;;3.20;99.90;;;;;;8394202;28;20395;-74
2021/11/27 15:05:39;;;;;;;;;;;3.10;99.90;;;;;;8393534;28;19955;-74
2021/11/27 15:09:41;;;;;;;;;;;3.10;99.90;;;;;;8395689;28;20003;-74
2021/11/27 15:13:43;;;;;;;;;;;3.00;99.90;;;;;;8397989;28;19963;-71
2021/11/27 15:17:46;;;;;;;;;;;3.00;99.90;;;;;;8397811;28;19928;-72
2021/11/27 15:21:49;;;;;;;;;;;3.00;99.90;;;;;;8392409;28;19927;-71
2021/11/27 15:25:51;;;;;;;;;;;3.00;99.90;;;;;;8405768;28;19971;-72
2021/11/27 15:29:53;;;;;;;;;;;3.00;99.90;;;;;;8397480;28;19971;-71
2021/11/27 15:33:55;;;;;;;;;;;3.00;99.90;;;;;;8394821;28;24319;-71
2021/11/27 15:37:56;;;;;;;;;;;3.00;99.90;;;;;;8394160;28;20014;-71
2021/11/27 15:42:02;;;;;;;;;;;3.00;99.90;;;;;;8395042;28;20351;-71
2021/11/27 15:46:04;;;;;;;;;;;3.00;99.90;;;;;;8394859;28;19959;-71
2021/11/27 15:50:06;;;;;;;;;;;3.00;99.90;;;;;;8395606;28;19947;-72
2021/11/27 15:54:08;;;;;;;;;;;3.00;99.90;;;;;;8389339;28;19954;-71
2021/11/27 15:58:11;;;;;;;;;;;3.10;99.90;;;;;;8394937;28;19924;-71
2021/11/27 16:02:13;;;;;;;;;;;3.10;99.90;;;;;;8401910;28;20877;-72
2021/11/27 16:06:15;;;;;;;;;;;3.10;99.90;;;;;;8406399;28;19959;-72
2021/11/27 16:10:17;;;;;;;;;;;3.10;99.90;;;;;;8388333;28;20349;-71
2021/11/27 16:14:19;;;;;;;;;;;3.10;99.90;;;;;;8395606;28;19920;-71
2021/11/27 16:18:21;;;;;;;;;;;3.10;99.90;;;;;;8390115;28;19928;-71
2021/11/27 16:22:23;;;;;;;;;;;3.10;99.90;;;;;;8390857;28;20014;-71
2021/11/27 16:26:25;;;;;;;;;;;3.10;99.90;;;;;;8394601;28;20336;-71
2021/11/27 16:30:27;;;;;;;;;;;3.10;99.90;;;;;;8393114;28;20372;-72
2021/11/27 16:34:28;;;;;;;;;;;3.10;99.90;;;;;;8409869;28;19928;-71
2021/11/27 16:38:30;;;;;;;;;;;3.10;99.90;;;;;;8391815;28;19966;-72
2021/11/27 16:42:32;;;;;;;;;;;3.10;99.90;;;;;;8391070;28;19968;-71
2021/11/27 16:46:34;;;;;;;;;;;3.20;99.90;;;;;;8390566;28;20015;-71
2021/11/27 16:50:36;;;;;;;;;;;3.10;99.90;;;;;;8391454;28;20364;-71
2021/11/27 16:54:37;;;;;;;;;;;3.10;99.90;;;;;;8421915;27;19924;-71
2021/11/27 16:58:39;;;;;;;;;;;3.20;99.90;;;;;;8397749;28;19928;-71
2021/11/27 17:02:40;;;;;;;;;;;3.20;99.90;;;;;;8391072;28;19928;-71
2021/11/27 17:06:42;;;;;;;;;;;3.20;99.90;;;;;;8405019;28;20287;-72
2021/11/27 17:10:44;;;;;;;;;;;3.20;99.90;;;;;;8402041;28;19947;-74
2021/11/27 17:14:46;;;;;;;;;;;3.20;99.90;;;;;;8390371;28;20322;-74
2021/11/27 17:18:51;;;;;;;;;;;3.20;99.90;;;;;;8396020;28;19927;-73
2021/11/27 17:22:53;;;;;;;;;;;3.20;99.90;;;;;;8393920;28;19924;-74
2021/11/27 17:26:54;;;;;;;;;;;3.30;99.90;;;;;;8400018;28;19920;-74
2021/11/27 17:30:56;;;;;;;;;;;3.30;99.90;;;;;;8418114;27;19932;-74
2021/11/27 17:34:58;;;;;;;;;;;3.30;99.90;;;;;;8403316;28;19925;-74
2021/11/27 17:39:00;;;;;;;;;;;3.30;99.90;;;;;;8408564;28;19931;-74
2021/11/27 17:43:01;;;;;;;;;;;3.30;99.90;;;;;;8399742;28;19920;-74
2021/11/27 17:47:09;;;;;;;;;;;3.30;99.90;;;;;;8399762;28;19920;-74
2021/11/27 17:51:11;;;;;;;;;;;3.30;99.90;;;;;;8398008;28;19927;-74
2021/11/27 17:55:13;;;;;;;;;;;3.30;99.90;;;;;;8412819;28;19967;-74
2021/11/27 17:59:14;;;;;;;;;;;3.40;99.90;;;;;;8398982;28;19959;-74
2021/11/27 18:03:16;;;;;;;;;;;3.30;99.90;;;;;;8396659;28;19943;-74
2021/11/27 18:07:21;;;;;;;;;;;3.40;99.90;;;;;;8394433;28;19932;-71
2021/11/27 18:11:23;;;;;;;;;;;3.30;99.90;;;;;;8407648;28;20011;-74
2021/11/27 18:15:24;;;;;;;;;;;3.30;99.90;;;;;;8433616;27;19956;-74
2021/11/27 18:19:27;;;;;;;;;;;3.40;99.90;;;;;;8404906;28;19990;-74
2021/11/27 18:23:34;;;;;;;;;;;3.40;99.90;;;;;;8398784;28;19924;-74
2021/11/27 18:27:38;;;;;;;;;;;3.40;99.90;;;;;;8433134;27;19920;-74
2021/11/27 18:31:40;;;;;;;;;;;3.40;99.90;;;;;;8405916;28;20010;-74
2021/11/27 18:35:43;;;;;;;;;;;3.40;99.90;;;;;;8406659;28;19924;-73
2021/11/27 18:39:46;;;;;;;;;;;3.50;99.90;;;;;;8393255;28;19924;-73
2021/11/27 18:43:48;;;;;;;;;;;3.50;99.90;;;;;;8399452;28;19967;-74
2021/11/27 18:47:50;;;;;;;;;;;3.60;99.90;;;;;;8394337;28;19951;-74
2021/11/27 18:51:51;;;;;;;;;;;3.60;99.90;;;;;;8394030;28;19924;-74
2021/11/27 18:55:53;;;;;;;;;;;3.60;99.90;;;;;;8390874;28;19920;-74
2021/11/27 18:59:55;;;;;;;;;;;3.60;99.90;;;;;;8394456;28;20265;-74
2021/11/27 19:03:57;;;;;;;;;;;3.60;99.90;;;;;;8388937;28;19939;-74
2021/11/27 19:07:58;;;;;;;;;;;3.50;99.90;;;;;;8389601;28;19940;-74
2021/11/27 19:12:00;;;;;;;;;;;3.60;99.90;;;;;;8389854;28;20059;-74
2021/11/27 19:16:02;;;;;;;;;;;3.60;99.90;;;;;;8394481;28;19987;-74
2021/11/27 19:20:07;;;;;;;;;;;3.60;99.90;;;;;;8393239;28;19927;-74
2021/11/27 19:24:09;;;;;;;;;;;3.60;99.90;;;;;;8387733;28;20026;-74
2021/11/27 19:28:10;;;;;;;;;;;3.60;99.90;;;;;;8396545;28;19971;-74
2021/11/27 19:32:12;;;;;;;;;;;3.60;99.90;;;;;;8388712;28;20002;-74
2021/11/27 19:36:15;;;;;;;;;;;3.60;99.90;;;;;;8422545;27;19972;-74
2021/11/27 19:40:16;;;;;;;;;;;3.60;99.90;;;;;;8408584;27;19958;-74
2021/11/27 19:44:18;;;;;;;;;;;3.60;99.90;;;;;;8397575;28;19952;-74
2021/11/27 19:48:20;;;;;;;;;;;3.60;99.90;;;;;;8406060;28;19929;-72
2021/11/27 19:52:21;;;;;;;;;;;3.60;99.90;;;;;;8406273;28;20713;-71
2021/11/27 19:56:23;;;;;;;;;;;3.60;99.90;;;;;;8439697;27;19923;-71
2021/11/27 20:00:24;;;;;;;;;;;3.60;99.90;;;;;;8406528;28;19988;-71
2021/11/27 20:04:26;;;;;;;;;;;3.60;99.90;;;;;;8399426;28;19940;-72
2021/11/27 20:08:28;;;;;;;;;;;3.70;99.90;;;;;;8401211;28;19989;-72
2021/11/27 20:12:29;;;;;;;;;;;3.70;99.90;;;;;;8398872;28;19951;-71
2021/11/27 20:16:33;;;;;;;;;;;3.70;99.90;;;;;;8404116;28;19931;-71
2021/11/27 20:20:35;;;;;;;;;;;3.70;99.90;;;;;;8402066;28;20355;-71
2021/11/27 20:24:36;;;;;;;;;;;3.70;99.90;;;;;;8401913;28;19963;-71
2021/11/27 20:28:38;;;;;;;;;;;3.70;99.90;;;;;;8403601;28;19952;-72
2021/11/27 20:32:40;;;;;;;;;;;3.70;99.90;;;;;;8400400;28;20348;-71
2021/11/27 20:36:42;;;;;;;;;;;3.80;99.90;;;;;;8402312;28;20299;-71
2021/11/27 20:40:44;;;;;;;;;;;3.80;99.90;;;;;;8400012;28;20029;-71
2021/11/27 20:44:45;;;;;;;;;;;3.80;99.90;;;;;;8401685;28;19927;-71
2021/11/27 20:48:47;;;;;;;;;;;3.80;99.90;;;;;;8404357;28;19963;-72
2021/11/27 20:52:48;;;;;;;;;;;3.80;99.90;;;;;;8403668;28;20007;-71
2021/11/27 20:56:50;;;;;;;;;;;3.80;99.90;;;;;;8403266;28;20006;-71
2021/11/27 21:00:52;;;;;;;;;;;3.80;99.90;;;;;;8414953;28;19946;-71
2021/11/27 21:04:54;;;;;;;;;;;3.80;99.90;;;;;;8423962;28;19981;-71
2021/11/27 21:08:56;;;;;;;;;;;3.80;99.90;;;;;;8414684;28;19924;-71
2021/11/27 21:12:58;;;;;;;;;;;3.80;99.90;;;;;;8408668;28;19928;-71
2021/11/27 21:17:01;;;;;;;;;;;3.80;99.90;;;;;;8407436;28;19963;-71
2021/11/27 21:21:03;;;;;;;;;;;3.80;99.90;;;;;;8412657;28;19924;-71
2021/11/27 21:25:05;;;;;;;;;;;3.80;99.90;;;;;;8406092;28;20283;-71
2021/11/27 21:29:07;;;;;;;;;;;3.80;99.90;;;;;;8408947;28;19963;-72
2021/11/27 21:33:09;;;;;;;;;;;3.90;99.90;;;;;;8406561;28;19921;-71
2021/11/27 21:37:10;;;;;;;;;;;3.90;99.90;;;;;;8426333;27;20006;-71
2021/11/27 21:41:12;;;;;;;;;;;3.90;99.90;;;;;;8409101;28;20003;-71
2021/11/27 21:45:14;;;;;;;;;;;3.90;99.90;;;;;;8408361;28;20363;-71
2021/11/27 21:49:15;;;;;;;;;;;3.90;99.90;;;;;;8410331;28;20383;-71
2021/11/27 21:53:17;;;;;;;;;;;3.90;99.90;;;;;;8407910;28;19952;-71
2021/11/27 21:57:19;;;;;;;;;;;3.90;99.90;;;;;;8405380;28;20288;-71
2021/11/27 22:01:20;;;;;;;;;;;3.90;99.90;;;;;;8408151;28;19974;-72
2021/11/27 22:05:22;;;;;;;;;;;4.00;99.90;;;;;;8423394;28;19927;-71
2021/11/27 22:09:24;;;;;;;;;;;4.00;99.90;;;;;;8419925;28;20003;-72
2021/11/27 22:13:25;;;;;;;;;;;4.00;99.90;;;;;;8418843;28;19920;-71
2021/11/27 22:17:27;;;;;;;;;;;4.00;99.90;;;;;;8418356;28;19930;-71
2021/11/27 22:21:29;;;;;;;;;;;4.00;99.90;;;;;;8426401;28;19950;-71
2021/11/27 22:25:31;;;;;;;;;;;4.00;99.90;;;;;;8434421;28;19919;-71
2021/11/27 22:29:33;;;;;;;;;;;4.00;99.90;;;;;;8430682;28;19974;-71
2021/11/27 22:33:37;;;;;;;;;;;4.00;99.90;;;;;;8422870;28;19939;-71
2021/11/27 22:37:39;;;;;;;;;;;4.00;99.90;;;;;;8421859;28;19931;-71
2021/11/27 22:41:41;;;;;;;;;;;4.10;99.90;;;;;;8422836;28;19955;-71
2021/11/27 22:45:43;;;;;;;;;;;4.10;99.90;;;;;;8414655;28;19959;-71
2021/11/27 22:49:45;;;;;;;;;;;4.10;99.90;;;;;;8430038;28;19955;-71
2021/11/27 22:53:46;;;;;;;;;;;4.10;99.90;;;;;;8433051;28;20228;-71
2021/11/27 22:57:48;;;;;;;;;;;4.10;99.90;;;;;;8422952;28;19959;-71
2021/11/27 23:01:51;;;;;;;;;;;4.10;99.90;;;;;;8426963;28;19920;-72
2021/11/27 23:05:53;;;;;;;;;;;4.10;99.90;;;;;;8453953;27;19920;-71
2021/11/27 23:09:55;;;;;;;;;;;4.20;99.90;;;;;;8453166;27;20022;-72
2021/11/27 23:13:57;;;;;;;;;;;4.20;99.90;;;;;;8419126;28;20390;-71
2021/11/27 23:18:01;;;;;;;;;;;4.20;99.90;;;;;;8411354;28;19967;-71
2021/11/27 23:22:04;;;;;;;;;;;4.20;99.90;;;;;;8419903;28;19928;-71
2021/11/27 23:26:06;;;;;;;;;;;4.20;99.90;;;;;;8421241;28;19971;-71
2021/11/27 23:30:11;;;;;;;;;;;4.20;99.90;;;;;;8418683;28;19963;-72
2021/11/27 23:34:13;;;;;;;;;;;4.20;99.90;;;;;;8425329;28;19978;-71
2021/11/27 23:38:15;;;;;;;;;;;4.20;99.90;;;;;;8419683;28;19920;-71
2021/11/27 23:42:17;;;;;;;;;;;4.20;99.90;;;;;;8410887;28;19971;-71
2021/11/27 23:46:19;;;;;;;;;;;4.20;99.90;;;;;;8422332;28;20398;-72
2021/11/27 23:50:21;;;;;;;;;;;4.20;99.90;;;;;;8412728;28;19920;-71
2021/11/27 23:54:22;;;;;;;;;;;4.20;99.90;;;;;;8416672;28;19920;-72